Time,TemperatureF,DewpointF,PressureIn,WindDirection,WindDirectionDegrees,WindSpeedMPH,WindSpeedGustMPH,Humidity,HourlyPrecipIn,Conditions,Clouds,dailyrainin,SolarRadiationWatts/m^2,SoftwareType,DateUTC
2013-11-30 00:02:00,36.0,34.0,-100.00,ESE,110,2.0,6.0,92,0.00,,,0.00,0.000000,,2013-11-30 06:02:00,
2013-11-30 00:42:00,34.0,32.0,-100.00,WNW,297,2.0,3.0,92,0.00,,,0.00,0.000000,,2013-11-30 06:42:00,
2013-11-30 00:52:00,34.0,32.0,-100.00,WNW,297,2.0,3.0,92,0.00,,,0.00,0.000000,,2013-11-30 06:52:00,
2013-11-30 01:01:00,34.0,32.0,-100.00,WNW,297,2.0,3.0,92,0.00,,,0.00,0.000000,,2013-11-30 07:01:00,
2013-11-30 01:42:00,33.0,31.0,-100.00,WNW,302,2.0,4.0,93,0.00,,,0.00,0.000000,,2013-11-30 07:42:00,
2013-11-30 01:52:00,33.0,31.0,-100.00,WNW,302,2.0,4.0,93,0.00,,,0.00,0.000000,,2013-11-30 07:52:00,
2013-11-30 02:01:00,33.0,31.0,-100.00,WNW,302,2.0,4.0,93,0.00,,,0.00,0.000000,,2013-11-30 08:01:00,
2013-11-30 02:42:00,33.0,31.0,-100.00,NW,320,3.0,5.0,93,0.00,,,0.00,0.000000,,2013-11-30 08:42:00,
2013-11-30 02:52:00,33.0,31.0,-100.00,NW,320,3.0,5.0,93,0.00,,,0.00,0.000000,,2013-11-30 08:52:00,
2013-11-30 03:02:00,33.0,31.0,-100.00,NW,320,3.0,5.0,93,0.00,,,0.00,0.000000,,2013-11-30 09:02:00,
2013-11-30 03:43:00,32.0,30.0,-100.00,NNW,345,5.0,6.0,94,0.00,,,0.00,0.000000,,2013-11-30 09:43:00,
2013-11-30 03:54:00,32.0,30.0,-100.00,NNW,345,5.0,6.0,94,0.00,,,0.00,0.000000,,2013-11-30 09:54:00,
2013-11-30 04:03:00,32.0,30.0,-100.00,NNW,345,5.0,6.0,94,0.00,,,0.00,0.000000,,2013-11-30 10:03:00,
2013-11-30 04:42:00,32.0,30.0,-100.00,NE,54,4.0,7.0,94,0.00,,,0.00,0.000000,,2013-11-30 10:42:00,
2013-11-30 04:53:00,32.0,30.0,-100.00,NE,54,4.0,7.0,94,0.00,,,0.00,0.000000,,2013-11-30 10:53:00,
2013-11-30 05:02:00,32.0,30.0,-100.00,NE,54,4.0,7.0,94,0.00,,,0.00,0.000000,,2013-11-30 11:02:00,
2013-11-30 05:42:00,32.0,30.0,-100.00,ENE,76,4.0,6.0,94,0.00,,,0.00,0.000000,,2013-11-30 11:42:00,
2013-11-30 05:52:00,32.0,30.0,-100.00,ENE,76,4.0,6.0,94,0.00,,,0.00,0.000000,,2013-11-30 11:52:00,
2013-11-30 06:02:00,32.0,30.0,-100.00,ENE,76,4.0,6.0,94,0.00,,,0.00,0.000000,,2013-11-30 12:02:00,
2013-11-30 06:42:00,32.0,30.0,-100.00,ENE,65,5.0,6.0,94,0.00,,,0.00,0.000000,,2013-11-30 12:42:00,
2013-11-30 06:52:00,32.0,30.0,-100.00,ENE,65,5.0,6.0,94,0.00,,,0.00,0.000000,,2013-11-30 12:52:00,
2013-11-30 07:01:00,32.0,30.0,-100.00,ENE,65,5.0,6.0,94,0.00,,,0.00,0.000000,,2013-11-30 13:01:00,
2013-11-30 07:42:00,33.0,31.0,-100.00,NNE,27,4.0,6.0,94,0.00,,,0.00,1.000000,,2013-11-30 13:42:00,
2013-11-30 07:52:00,33.0,31.0,-100.00,NNE,27,4.0,6.0,94,0.00,,,0.00,1.000000,,2013-11-30 13:52:00,
2013-11-30 08:01:00,33.0,31.0,-100.00,NNE,27,4.0,6.0,94,0.00,,,0.00,1.000000,,2013-11-30 14:01:00,
2013-11-30 08:42:00,35.0,33.0,-100.00,NE,41,4.0,6.0,93,0.00,,,0.00,32.000000,,2013-11-30 14:42:00,
2013-11-30 08:53:00,35.0,33.0,-100.00,NE,41,4.0,6.0,93,0.00,,,0.00,32.000000,,2013-11-30 14:53:00,
2013-11-30 09:02:00,35.0,33.0,-100.00,NE,41,4.0,6.0,93,0.00,,,0.00,32.000000,,2013-11-30 15:02:00,
2013-11-30 09:43:00,43.0,40.0,-100.00,East,90,3.0,6.0,88,0.00,,,0.00,134.000000,,2013-11-30 15:43:00,
2013-11-30 09:54:00,43.0,40.0,-100.00,East,90,3.0,6.0,88,0.00,,,0.00,134.000000,,2013-11-30 15:54:00,
2013-11-30 10:03:00,43.0,40.0,-100.00,East,90,3.0,6.0,88,0.00,,,0.00,134.000000,,2013-11-30 16:03:00,
2013-11-30 10:43:00,53.0,43.0,-100.00,SE,135,4.0,7.0,70,0.00,,,0.00,171.000000,,2013-11-30 16:43:00,
2013-11-30 10:53:00,53.0,43.0,-100.00,SE,135,4.0,7.0,70,0.00,,,0.00,171.000000,,2013-11-30 16:53:00,
2013-11-30 11:02:00,53.0,43.0,-100.00,SE,135,4.0,7.0,70,0.00,,,0.00,171.000000,,2013-11-30 17:02:00,
2013-11-30 11:42:00,60.0,43.0,-100.00,ESE,104,3.0,5.0,54,0.00,,,0.00,442.000000,,2013-11-30 17:42:00,
2013-11-30 11:53:00,60.0,43.0,-100.00,ESE,104,3.0,5.0,54,0.00,,,0.00,442.000000,,2013-11-30 17:53:00,
2013-11-30 12:01:00,60.0,43.0,-100.00,ESE,104,3.0,5.0,54,0.00,,,0.00,442.000000,,2013-11-30 18:01:00,
2013-11-30 12:42:00,62.0,45.0,-100.00,SSE,151,3.0,6.0,53,0.00,,,0.00,361.000000,,2013-11-30 18:42:00,
2013-11-30 12:52:00,62.0,45.0,-100.00,SSE,151,3.0,6.0,53,0.00,,,0.00,361.000000,,2013-11-30 18:52:00,
2013-11-30 13:01:00,62.0,45.0,-100.00,SSE,151,3.0,6.0,53,0.00,,,0.00,361.000000,,2013-11-30 19:01:00,
2013-11-30 13:42:00,64.0,46.0,-100.00,SSE,149,2.0,7.0,52,0.00,,,0.00,368.000000,,2013-11-30 19:42:00,
2013-11-30 13:52:00,64.0,46.0,-100.00,SSE,149,2.0,7.0,52,0.00,,,0.00,368.000000,,2013-11-30 19:52:00,
2013-11-30 14:02:00,64.0,46.0,-100.00,SSE,149,2.0,7.0,52,0.00,,,0.00,368.000000,,2013-11-30 20:02:00,
2013-11-30 14:42:00,68.0,43.0,-100.00,ESE,118,3.0,7.0,41,0.00,,,0.00,549.000000,,2013-11-30 20:42:00,
2013-11-30 14:52:00,68.0,43.0,-100.00,ESE,118,3.0,7.0,41,0.00,,,0.00,549.000000,,2013-11-30 20:52:00,
2013-11-30 15:02:00,68.0,43.0,-100.00,ESE,118,3.0,7.0,41,0.00,,,0.00,549.000000,,2013-11-30 21:02:00,
2013-11-30 15:43:00,69.0,45.0,-100.00,NE,36,2.0,5.0,42,0.00,,,0.00,438.000000,,2013-11-30 21:43:00,
2013-11-30 15:53:00,69.0,45.0,-100.00,NE,36,2.0,5.0,42,0.00,,,0.00,438.000000,,2013-11-30 21:53:00,
2013-11-30 16:03:00,69.0,45.0,-100.00,NE,36,2.0,5.0,42,0.00,,,0.00,438.000000,,2013-11-30 22:03:00,
2013-11-30 16:42:00,63.0,46.0,-100.00,East,91,4.0,6.0,54,0.00,,,0.00,227.000000,,2013-11-30 22:42:00,
2013-11-30 16:52:00,63.0,46.0,-100.00,East,91,4.0,6.0,54,0.00,,,0.00,227.000000,,2013-11-30 22:52:00,
2013-11-30 17:02:00,63.0,46.0,-100.00,East,91,4.0,6.0,54,0.00,,,0.00,227.000000,,2013-11-30 23:02:00,
2013-11-30 17:42:00,58.0,47.0,-100.00,SE,127,3.0,5.0,66,0.00,,,0.00,24.000000,,2013-11-30 23:42:00,
2013-11-30 17:53:00,58.0,47.0,-100.00,SE,127,3.0,5.0,66,0.00,,,0.00,24.000000,,2013-11-30 23:53:00,
2013-11-30 18:02:00,58.0,47.0,-100.00,SE,127,3.0,5.0,66,0.00,,,0.00,24.000000,,2013-12-01 00:02:00,
2013-11-30 18:42:00,53.0,46.0,-100.00,SE,131,4.0,6.0,78,0.00,,,0.00,1.000000,,2013-12-01 00:42:00,
2013-11-30 18:52:00,53.0,46.0,-100.00,SE,131,4.0,6.0,78,0.00,,,0.00,1.000000,,2013-12-01 00:52:00,
2013-11-30 19:01:00,53.0,46.0,-100.00,SE,131,4.0,6.0,78,0.00,,,0.00,1.000000,,2013-12-01 01:01:00,
2013-11-30 19:42:00,50.0,47.0,-100.00,SE,144,4.0,6.0,88,0.00,,,0.00,0.000000,,2013-12-01 01:42:00,
2013-11-30 19:52:00,50.0,47.0,-100.00,SE,144,4.0,6.0,88,0.00,,,0.00,0.000000,,2013-12-01 01:52:00,
2013-11-30 20:01:00,50.0,47.0,-100.00,SE,144,4.0,6.0,88,0.00,,,0.00,0.000000,,2013-12-01 02:01:00,
2013-11-30 20:42:00,49.0,46.0,-100.00,SSE,153,6.0,8.0,91,0.00,,,-99.99,0.000000,,2013-12-01 02:42:00,
2013-11-30 20:52:00,49.0,46.0,-100.00,SSE,153,6.0,8.0,91,0.00,,,-99.99,0.000000,,2013-12-01 02:52:00,
2013-11-30 21:02:00,49.0,46.0,-100.00,SSE,153,6.0,8.0,91,0.00,,,-99.99,0.000000,,2013-12-01 03:02:00,
2013-11-30 21:44:00,48.0,45.0,-100.00,South,179,6.0,9.0,91,0.00,,,0.00,0.000000,,2013-12-01 03:44:00,
2013-11-30 21:53:00,48.0,45.0,-100.00,South,179,6.0,9.0,91,0.00,,,0.00,0.000000,,2013-12-01 03:53:00,
2013-11-30 22:02:00,-999.0,-99.9,-100.00,South,179,6.0,9.0,-999,0.00,,,0.00,0.000000,,2013-12-01 04:02:00,
2013-11-30 22:42:00,47.0,43.0,-100.00,SSW,213,3.0,7.0,86,0.00,,,0.00,0.000000,,2013-12-01 04:42:00,
2013-11-30 22:52:00,47.0,43.0,-100.00,SSW,213,3.0,7.0,86,0.00,,,0.00,0.000000,,2013-12-01 04:52:00,
2013-11-30 23:02:00,47.0,43.0,-100.00,SSW,213,3.0,7.0,86,0.00,,,0.00,0.000000,,2013-12-01 05:02:00,
2013-11-30 23:43:00,44.0,42.0,-100.00,South,191,5.0,9.0,92,0.00,,,0.00,0.000000,,2013-12-01 05:43:00,
2013-11-30 23:53:00,44.0,42.0,-100.00,South,191,5.0,9.0,92,0.00,,,0.00,0.000000,,2013-12-01 05:53:00,